Terminal Aerodrome Forecast
Issued by NWS

Current Version | Previous Version | Text Only | Print | Product List | Glossary Off
Versions: 1 2 3 4 5 6 7 8 9 10 11 12 13 14 15 16 17 18 19 20 21 22

989
FTUS41 KPBZ 260520
TAFHLG
TAF
KHLG 260520Z 2606/2706 31004KT P6SM SCT015
      TEMPO 2606/2609 BKN015
     FM260900 30003KT P6SM SCT020
      TEMPO 2609/2612 3SM BR
     FM261600 29005KT P6SM SCT035=

USA.gov is the U.S. government's official web portal to all federal, state and local government web resources and services.